sensor_id;sensor_type;location;lat;lon;timestamp;P1;durP1;ratioP1;P2;durP2;ratioP2
53519;SDS011;39397;53.204;5.778;2023-02-05T00:00:23;27.00;;;7.30;;
53519;SDS011;39397;53.204;5.778;2023-02-05T00:02:49;29.48;;;7.15;;
53519;SDS011;39397;53.204;5.778;2023-02-05T00:05:14;25.15;;;7.88;;
53519;SDS011;39397;53.204;5.778;2023-02-05T00:07:40;24.33;;;7.63;;
53519;SDS011;39397;53.204;5.778;2023-02-05T00:10:07;22.05;;;7.63;;
53519;SDS011;39397;53.204;5.778;2023-02-05T00:12:33;24.20;;;7.18;;
53519;SDS011;39397;53.204;5.778;2023-02-05T00:14:59;27.50;;;8.02;;
53519;SDS011;39397;53.204;5.778;2023-02-05T00:17:25;32.58;;;8.23;;
53519;SDS011;39397;53.204;5.778;2023-02-05T00:19:51;34.17;;;8.93;;
53519;SDS011;39397;53.204;5.778;2023-02-05T00:22:16;29.60;;;8.63;;
53519;SDS011;39397;53.204;5.778;2023-02-05T00:24:42;32.33;;;9.00;;
53519;SDS011;39397;53.204;5.778;2023-02-05T00:27:08;29.42;;;7.07;;
53519;SDS011;39397;53.204;5.778;2023-02-05T00:29:34;27.33;;;7.68;;
53519;SDS011;39397;53.204;5.778;2023-02-05T00:32:00;27.40;;;7.07;;
53519;SDS011;39397;53.204;5.778;2023-02-05T00:34:26;36.78;;;8.13;;
53519;SDS011;39397;53.204;5.778;2023-02-05T00:36:51;21.80;;;6.38;;
53519;SDS011;39397;53.204;5.778;2023-02-05T00:39:17;36.78;;;8.10;;
53519;SDS011;39397;53.204;5.778;2023-02-05T00:41:43;35.65;;;8.65;;
53519;SDS011;39397;53.204;5.778;2023-02-05T00:44:09;32.15;;;8.30;;
53519;SDS011;39397;53.204;5.778;2023-02-05T00:46:35;37.28;;;8.38;;
53519;SDS011;39397;53.204;5.778;2023-02-05T00:49:00;35.05;;;7.90;;
53519;SDS011;39397;53.204;5.778;2023-02-05T00:51:26;29.10;;;8.23;;
53519;SDS011;39397;53.204;5.778;2023-02-05T00:53:52;28.45;;;6.95;;
53519;SDS011;39397;53.204;5.778;2023-02-05T00:56:17;29.20;;;8.50;;
53519;SDS011;39397;53.204;5.778;2023-02-05T00:58:43;35.13;;;7.80;;
53519;SDS011;39397;53.204;5.778;2023-02-05T01:01:12;32.90;;;8.10;;
53519;SDS011;39397;53.204;5.778;2023-02-05T01:03:38;35.90;;;7.95;;
53519;SDS011;39397;53.204;5.778;2023-02-05T01:06:05;33.53;;;8.13;;
53519;SDS011;39397;53.204;5.778;2023-02-05T01:08:31;33.75;;;8.88;;
53519;SDS011;39397;53.204;5.778;2023-02-05T01:10:57;41.40;;;9.00;;
53519;SDS011;39397;53.204;5.778;2023-02-05T01:13:23;37.03;;;9.57;;
53519;SDS011;39397;53.204;5.778;2023-02-05T01:15:48;28.20;;;9.70;;
53519;SDS011;39397;53.204;5.778;2023-02-05T01:18:14;37.38;;;11.23;;
53519;SDS011;39397;53.204;5.778;2023-02-05T01:20:42;44.90;;;10.20;;
53519;SDS011;39397;53.204;5.778;2023-02-05T01:23:08;36.78;;;10.15;;
53519;SDS011;39397;53.204;5.778;2023-02-05T01:25:35;45.47;;;11.02;;
53519;SDS011;39397;53.204;5.778;2023-02-05T01:28:01;42.63;;;11.32;;
53519;SDS011;39397;53.204;5.778;2023-02-05T01:30:27;38.83;;;11.27;;
53519;SDS011;39397;53.204;5.778;2023-02-05T01:32:52;49.10;;;12.18;;
53519;SDS011;39397;53.204;5.778;2023-02-05T01:35:18;43.78;;;12.23;;
53519;SDS011;39397;53.204;5.778;2023-02-05T01:37:44;40.55;;;11.75;;
53519;SDS011;39397;53.204;5.778;2023-02-05T01:40:12;42.25;;;14.07;;
53519;SDS011;39397;53.204;5.778;2023-02-05T01:42:40;44.30;;;12.82;;
53519;SDS011;39397;53.204;5.778;2023-02-05T01:47:47;42.03;;;13.70;;
53519;SDS011;39397;53.204;5.778;2023-02-05T01:50:15;44.65;;;14.93;;
53519;SDS011;39397;53.204;5.778;2023-02-05T01:52:43;52.85;;;16.35;;
53519;SDS011;39397;53.204;5.778;2023-02-05T01:55:09;49.25;;;16.63;;
53519;SDS011;39397;53.204;5.778;2023-02-05T01:57:36;48.95;;;16.38;;
53519;SDS011;39397;53.204;5.778;2023-02-05T02:00:03;51.63;;;18.38;;
53519;SDS011;39397;53.204;5.778;2023-02-05T02:02:30;46.55;;;17.88;;
53519;SDS011;39397;53.204;5.778;2023-02-05T02:04:57;50.63;;;19.27;;
53519;SDS011;39397;53.204;5.778;2023-02-05T02:07:26;53.25;;;19.55;;
53519;SDS011;39397;53.204;5.778;2023-02-05T02:09:52;52.40;;;19.30;;
53519;SDS011;39397;53.204;5.778;2023-02-05T02:12:23;45.40;;;17.92;;
53519;SDS011;39397;53.204;5.778;2023-02-05T02:14:54;51.95;;;19.90;;
53519;SDS011;39397;53.204;5.778;2023-02-05T02:17:23;53.38;;;18.75;;
53519;SDS011;39397;53.204;5.778;2023-02-05T02:27:57;58.28;;;20.45;;
53519;SDS011;39397;53.204;5.778;2023-02-05T02:35:58;54.63;;;18.02;;
53519;SDS011;39397;53.204;5.778;2023-02-05T02:38:28;51.65;;;21.08;;
53519;SDS011;39397;53.204;5.778;2023-02-05T02:41:10;47.50;;;18.92;;
53519;SDS011;39397;53.204;5.778;2023-02-05T02:46:22;50.45;;;18.10;;
53519;SDS011;39397;53.204;5.778;2023-02-05T02:48:53;47.80;;;18.40;;
53519;SDS011;39397;53.204;5.778;2023-02-05T02:51:26;49.55;;;18.67;;
53519;SDS011;39397;53.204;5.778;2023-02-05T02:53:54;44.53;;;17.80;;
53519;SDS011;39397;53.204;5.778;2023-02-05T02:56:22;47.97;;;18.98;;
53519;SDS011;39397;53.204;5.778;2023-02-05T02:58:52;45.42;;;17.70;;
53519;SDS011;39397;53.204;5.778;2023-02-05T03:01:23;45.38;;;17.05;;
53519;SDS011;39397;53.204;5.778;2023-02-05T03:04:02;42.35;;;16.58;;
53519;SDS011;39397;53.204;5.778;2023-02-05T03:06:33;42.65;;;15.85;;
53519;SDS011;39397;53.204;5.778;2023-02-05T03:09:00;31.75;;;13.80;;
53519;SDS011;39397;53.204;5.778;2023-02-05T03:11:28;32.53;;;13.93;;
53519;SDS011;39397;53.204;5.778;2023-02-05T03:13:54;31.58;;;13.45;;
53519;SDS011;39397;53.204;5.778;2023-02-05T03:16:21;41.53;;;15.90;;
53519;SDS011;39397;53.204;5.778;2023-02-05T03:18:48;36.85;;;14.02;;
53519;SDS011;39397;53.204;5.778;2023-02-05T03:21:23;36.70;;;14.20;;
53519;SDS011;39397;53.204;5.778;2023-02-05T03:23:54;34.50;;;13.02;;
53519;SDS011;39397;53.204;5.778;2023-02-05T03:26:31;35.95;;;12.55;;
53519;SDS011;39397;53.204;5.778;2023-02-05T03:29:03;32.33;;;12.93;;
53519;SDS011;39397;53.204;5.778;2023-02-05T03:31:39;28.48;;;12.18;;
53519;SDS011;39397;53.204;5.778;2023-02-05T03:37:20;23.83;;;10.45;;
53519;SDS011;39397;53.204;5.778;2023-02-05T03:40:05;28.05;;;10.30;;
53519;SDS011;39397;53.204;5.778;2023-02-05T03:45:27;27.33;;;9.50;;
53519;SDS011;39397;53.204;5.778;2023-02-05T03:48:04;22.17;;;8.48;;
53519;SDS011;39397;53.204;5.778;2023-02-05T03:55:51;17.23;;;6.65;;
53519;SDS011;39397;53.204;5.778;2023-02-05T03:58:31;14.32;;;5.07;;
53519;SDS011;39397;53.204;5.778;2023-02-05T04:01:04;20.17;;;5.18;;
53519;SDS011;39397;53.204;5.778;2023-02-05T04:03:34;15.68;;;4.75;;
53519;SDS011;39397;53.204;5.778;2023-02-05T04:06:00;14.63;;;5.45;;
53519;SDS011;39397;53.204;5.778;2023-02-05T04:08:26;14.68;;;5.38;;
53519;SDS011;39397;53.204;5.778;2023-02-05T04:10:52;13.95;;;4.32;;
53519;SDS011;39397;53.204;5.778;2023-02-05T04:13:19;8.55;;;4.00;;
53519;SDS011;39397;53.204;5.778;2023-02-05T04:15:46;14.43;;;5.57;;
53519;SDS011;39397;53.204;5.778;2023-02-05T04:18:13;8.48;;;3.75;;
53519;SDS011;39397;53.204;5.778;2023-02-05T04:20:39;15.55;;;5.53;;
53519;SDS011;39397;53.204;5.778;2023-02-05T04:23:05;13.70;;;5.15;;
53519;SDS011;39397;53.204;5.778;2023-02-05T04:25:30;12.60;;;4.97;;
53519;SDS011;39397;53.204;5.778;2023-02-05T04:27:56;15.70;;;4.32;;
53519;SDS011;39397;53.204;5.778;2023-02-05T04:30:22;16.73;;;2.97;;
53519;SDS011;39397;53.204;5.778;2023-02-05T04:32:47;16.10;;;2.50;;
53519;SDS011;39397;53.204;5.778;2023-02-05T04:35:13;15.40;;;2.40;;
53519;SDS011;39397;53.204;5.778;2023-02-05T04:37:40;20.15;;;2.50;;
53519;SDS011;39397;53.204;5.778;2023-02-05T04:40:06;19.85;;;2.67;;
53519;SDS011;39397;53.204;5.778;2023-02-05T04:42:32;21.70;;;3.20;;
53519;SDS011;39397;53.204;5.778;2023-02-05T04:44:58;17.52;;;2.53;;
53519;SDS011;39397;53.204;5.778;2023-02-05T04:47:24;16.70;;;2.75;;
53519;SDS011;39397;53.204;5.778;2023-02-05T04:49:51;18.52;;;1.73;;
53519;SDS011;39397;53.204;5.778;2023-02-05T04:52:16;10.40;;;1.33;;
53519;SDS011;39397;53.204;5.778;2023-02-05T04:54:42;18.50;;;2.72;;
53519;SDS011;39397;53.204;5.778;2023-02-05T04:57:08;10.20;;;1.63;;
53519;SDS011;39397;53.204;5.778;2023-02-05T04:59:33;17.17;;;2.83;;
53519;SDS011;39397;53.204;5.778;2023-02-05T05:01:59;17.15;;;2.40;;
53519;SDS011;39397;53.204;5.778;2023-02-05T05:04:25;17.40;;;1.80;;
53519;SDS011;39397;53.204;5.778;2023-02-05T05:06:51;19.15;;;2.47;;
53519;SDS011;39397;53.204;5.778;2023-02-05T05:09:16;13.15;;;1.98;;
53519;SDS011;39397;53.204;5.778;2023-02-05T05:11:44;11.88;;;1.65;;
53519;SDS011;39397;53.204;5.778;2023-02-05T05:14:10;6.70;;;1.52;;
53519;SDS011;39397;53.204;5.778;2023-02-05T05:16:36;14.68;;;1.25;;
53519;SDS011;39397;53.204;5.778;2023-02-05T05:19:02;11.20;;;1.08;;
53519;SDS011;39397;53.204;5.778;2023-02-05T05:21:28;8.70;;;1.23;;
53519;SDS011;39397;53.204;5.778;2023-02-05T05:23:54;14.02;;;3.25;;
53519;SDS011;39397;53.204;5.778;2023-02-05T05:26:19;8.75;;;1.40;;
53519;SDS011;39397;53.204;5.778;2023-02-05T05:28:45;12.07;;;1.73;;
53519;SDS011;39397;53.204;5.778;2023-02-05T05:31:14;13.85;;;1.67;;
53519;SDS011;39397;53.204;5.778;2023-02-05T05:33:41;10.20;;;1.42;;
53519;SDS011;39397;53.204;5.778;2023-02-05T05:36:07;17.20;;;3.00;;
53519;SDS011;39397;53.204;5.778;2023-02-05T05:38:33;15.25;;;2.38;;
53519;SDS011;39397;53.204;5.778;2023-02-05T05:40:59;13.80;;;1.98;;
53519;SDS011;39397;53.204;5.778;2023-02-05T05:46:16;17.48;;;3.50;;
53519;SDS011;39397;53.204;5.778;2023-02-05T05:48:51;19.17;;;2.35;;
53519;SDS011;39397;53.204;5.778;2023-02-05T05:51:18;14.65;;;2.42;;
53519;SDS011;39397;53.204;5.778;2023-02-05T05:53:45;14.00;;;1.77;;
53519;SDS011;39397;53.204;5.778;2023-02-05T05:56:11;18.33;;;2.78;;
53519;SDS011;39397;53.204;5.778;2023-02-05T05:58:37;20.10;;;2.58;;
53519;SDS011;39397;53.204;5.778;2023-02-05T06:01:04;17.05;;;2.63;;
53519;SDS011;39397;53.204;5.778;2023-02-05T06:03:30;15.98;;;2.65;;
53519;SDS011;39397;53.204;5.778;2023-02-05T06:06:02;22.70;;;3.42;;
53519;SDS011;39397;53.204;5.778;2023-02-05T06:08:30;21.40;;;2.88;;
53519;SDS011;39397;53.204;5.778;2023-02-05T06:10:56;13.07;;;2.72;;
53519;SDS011;39397;53.204;5.778;2023-02-05T06:13:22;19.08;;;3.28;;
53519;SDS011;39397;53.204;5.778;2023-02-05T06:15:49;20.15;;;3.10;;
53519;SDS011;39397;53.204;5.778;2023-02-05T06:18:16;24.17;;;3.53;;
53519;SDS011;39397;53.204;5.778;2023-02-05T06:20:43;20.23;;;3.90;;
53519;SDS011;39397;53.204;5.778;2023-02-05T06:23:09;15.50;;;2.38;;
53519;SDS011;39397;53.204;5.778;2023-02-05T06:25:35;19.10;;;3.15;;
53519;SDS011;39397;53.204;5.778;2023-02-05T06:28:00;17.10;;;2.92;;
53519;SDS011;39397;53.204;5.778;2023-02-05T06:30:26;14.43;;;2.15;;
53519;SDS011;39397;53.204;5.778;2023-02-05T06:32:52;22.50;;;3.33;;
53519;SDS011;39397;53.204;5.778;2023-02-05T06:35:18;16.08;;;2.58;;
53519;SDS011;39397;53.204;5.778;2023-02-05T06:37:44;16.42;;;2.42;;
53519;SDS011;39397;53.204;5.778;2023-02-05T06:40:09;16.63;;;2.83;;
53519;SDS011;39397;53.204;5.778;2023-02-05T06:42:36;19.58;;;2.15;;
53519;SDS011;39397;53.204;5.778;2023-02-05T06:45:03;12.95;;;2.47;;
53519;SDS011;39397;53.204;5.778;2023-02-05T06:47:29;18.08;;;2.85;;
53519;SDS011;39397;53.204;5.778;2023-02-05T06:49:55;18.13;;;1.92;;
53519;SDS011;39397;53.204;5.778;2023-02-05T06:52:21;18.75;;;2.45;;
53519;SDS011;39397;53.204;5.778;2023-02-05T06:54:46;16.25;;;3.25;;
53519;SDS011;39397;53.204;5.778;2023-02-05T06:57:12;19.25;;;2.38;;
53519;SDS011;39397;53.204;5.778;2023-02-05T06:59:38;21.35;;;3.05;;
53519;SDS011;39397;53.204;5.778;2023-02-05T07:02:03;16.70;;;3.03;;
53519;SDS011;39397;53.204;5.778;2023-02-05T07:04:29;15.88;;;2.83;;
53519;SDS011;39397;53.204;5.778;2023-02-05T07:06:56;14.55;;;2.65;;
53519;SDS011;39397;53.204;5.778;2023-02-05T07:09:22;15.20;;;2.58;;
53519;SDS011;39397;53.204;5.778;2023-02-05T07:11:48;21.38;;;3.70;;
53519;SDS011;39397;53.204;5.778;2023-02-05T07:14:14;14.55;;;2.38;;
53519;SDS011;39397;53.204;5.778;2023-02-05T07:16:40;17.05;;;2.35;;
53519;SDS011;39397;53.204;5.778;2023-02-05T07:19:06;13.50;;;2.38;;
53519;SDS011;39397;53.204;5.778;2023-02-05T07:21:32;11.40;;;2.13;;
53519;SDS011;39397;53.204;5.778;2023-02-05T07:23:57;13.15;;;1.77;;
53519;SDS011;39397;53.204;5.778;2023-02-05T07:26:23;14.55;;;1.92;;
53519;SDS011;39397;53.204;5.778;2023-02-05T07:28:49;15.57;;;2.20;;
53519;SDS011;39397;53.204;5.778;2023-02-05T07:31:17;15.85;;;2.75;;
53519;SDS011;39397;53.204;5.778;2023-02-05T07:33:44;19.30;;;2.75;;
53519;SDS011;39397;53.204;5.778;2023-02-05T07:36:11;16.15;;;3.05;;
53519;SDS011;39397;53.204;5.778;2023-02-05T07:38:40;19.10;;;3.25;;
53519;SDS011;39397;53.204;5.778;2023-02-05T07:41:07;16.17;;;2.60;;
53519;SDS011;39397;53.204;5.778;2023-02-05T07:43:34;23.27;;;4.47;;
53519;SDS011;39397;53.204;5.778;2023-02-05T07:46:02;22.38;;;3.80;;
53519;SDS011;39397;53.204;5.778;2023-02-05T07:48:29;26.83;;;3.15;;
53519;SDS011;39397;53.204;5.778;2023-02-05T07:50:55;26.20;;;3.38;;
53519;SDS011;39397;53.204;5.778;2023-02-05T07:53:21;19.90;;;2.92;;
53519;SDS011;39397;53.204;5.778;2023-02-05T07:55:46;23.77;;;4.88;;
53519;SDS011;39397;53.204;5.778;2023-02-05T07:58:13;29.58;;;5.10;;
53519;SDS011;39397;53.204;5.778;2023-02-05T08:00:39;20.45;;;4.85;;
53519;SDS011;39397;53.204;5.778;2023-02-05T08:03:05;24.83;;;4.65;;
53519;SDS011;39397;53.204;5.778;2023-02-05T08:05:31;25.98;;;5.93;;
53519;SDS011;39397;53.204;5.778;2023-02-05T08:07:57;20.95;;;4.10;;
53519;SDS011;39397;53.204;5.778;2023-02-05T08:10:23;29.38;;;4.90;;
53519;SDS011;39397;53.204;5.778;2023-02-05T08:12:48;32.05;;;6.22;;
53519;SDS011;39397;53.204;5.778;2023-02-05T08:15:14;22.55;;;4.10;;
53519;SDS011;39397;53.204;5.778;2023-02-05T08:17:40;34.95;;;4.70;;
53519;SDS011;39397;53.204;5.778;2023-02-05T08:20:06;27.70;;;5.20;;
53519;SDS011;39397;53.204;5.778;2023-02-05T08:22:33;30.50;;;5.47;;
53519;SDS011;39397;53.204;5.778;2023-02-05T08:24:59;29.48;;;3.65;;
53519;SDS011;39397;53.204;5.778;2023-02-05T08:27:25;26.27;;;4.70;;
53519;SDS011;39397;53.204;5.778;2023-02-05T08:29:51;29.52;;;4.50;;
53519;SDS011;39397;53.204;5.778;2023-02-05T08:32:17;28.95;;;4.55;;
53519;SDS011;39397;53.204;5.778;2023-02-05T08:34:43;18.80;;;3.42;;
53519;SDS011;39397;53.204;5.778;2023-02-05T08:37:08;29.85;;;4.38;;
53519;SDS011;39397;53.204;5.778;2023-02-05T08:39:35;20.67;;;4.93;;
53519;SDS011;39397;53.204;5.778;2023-02-05T08:42:01;29.23;;;5.03;;
53519;SDS011;39397;53.204;5.778;2023-02-05T08:44:29;25.77;;;4.45;;
53519;SDS011;39397;53.204;5.778;2023-02-05T08:47:10;19.35;;;4.13;;
53519;SDS011;39397;53.204;5.778;2023-02-05T08:49:40;22.60;;;4.68;;
53519;SDS011;39397;53.204;5.778;2023-02-05T08:52:07;25.40;;;5.47;;
53519;SDS011;39397;53.204;5.778;2023-02-05T08:54:38;29.10;;;5.63;;
53519;SDS011;39397;53.204;5.778;2023-02-05T08:57:05;27.80;;;5.75;;
53519;SDS011;39397;53.204;5.778;2023-02-05T08:59:41;27.33;;;5.75;;
53519;SDS011;39397;53.204;5.778;2023-02-05T09:02:17;36.47;;;7.57;;
53519;SDS011;39397;53.204;5.778;2023-02-05T09:04:45;29.35;;;6.00;;
53519;SDS011;39397;53.204;5.778;2023-02-05T09:07:11;28.63;;;5.40;;
53519;SDS011;39397;53.204;5.778;2023-02-05T09:09:49;33.53;;;5.05;;
53519;SDS011;39397;53.204;5.778;2023-02-05T09:12:16;26.23;;;6.10;;
53519;SDS011;39397;53.204;5.778;2023-02-05T09:14:42;30.50;;;6.18;;
53519;SDS011;39397;53.204;5.778;2023-02-05T09:17:11;25.88;;;6.03;;
53519;SDS011;39397;53.204;5.778;2023-02-05T09:19:39;35.13;;;6.50;;
53519;SDS011;39397;53.204;5.778;2023-02-05T09:22:07;33.58;;;6.03;;
53519;SDS011;39397;53.204;5.778;2023-02-05T09:24:35;38.28;;;6.35;;
53519;SDS011;39397;53.204;5.778;2023-02-05T09:27:09;38.38;;;5.97;;
53519;SDS011;39397;53.204;5.778;2023-02-05T09:29:40;31.40;;;5.47;;
53519;SDS011;39397;53.204;5.778;2023-02-05T09:32:12;25.40;;;5.07;;
53519;SDS011;39397;53.204;5.778;2023-02-05T09:34:38;43.70;;;8.63;;
53519;SDS011;39397;53.204;5.778;2023-02-05T09:37:08;40.88;;;6.35;;
53519;SDS011;39397;53.204;5.778;2023-02-05T09:39:34;44.45;;;9.07;;
53519;SDS011;39397;53.204;5.778;2023-02-05T09:42:13;38.63;;;6.40;;
53519;SDS011;39397;53.204;5.778;2023-02-05T09:45:15;29.90;;;5.40;;
53519;SDS011;39397;53.204;5.778;2023-02-05T09:48:26;31.17;;;6.47;;
53519;SDS011;39397;53.204;5.778;2023-02-05T09:51:19;40.80;;;5.97;;
53519;SDS011;39397;53.204;5.778;2023-02-05T09:53:54;26.50;;;5.10;;
53519;SDS011;39397;53.204;5.778;2023-02-05T09:56:25;32.63;;;5.85;;
53519;SDS011;39397;53.204;5.778;2023-02-05T09:58:55;32.70;;;5.45;;
53519;SDS011;39397;53.204;5.778;2023-02-05T10:03:58;31.80;;;5.55;;
53519;SDS011;39397;53.204;5.778;2023-02-05T10:09:42;27.15;;;4.82;;
53519;SDS011;39397;53.204;5.778;2023-02-05T10:12:22;34.03;;;6.63;;
53519;SDS011;39397;53.204;5.778;2023-02-05T10:23:57;35.05;;;6.03;;
53519;SDS011;39397;53.204;5.778;2023-02-05T10:26:43;28.23;;;5.05;;
53519;SDS011;39397;53.204;5.778;2023-02-05T10:32:32;30.48;;;5.43;;
53519;SDS011;39397;53.204;5.778;2023-02-05T10:37:55;25.52;;;4.80;;
53519;SDS011;39397;53.204;5.778;2023-02-05T10:40:23;33.35;;;6.50;;
53519;SDS011;39397;53.204;5.778;2023-02-05T10:43:11;24.52;;;4.53;;
53519;SDS011;39397;53.204;5.778;2023-02-05T10:48:44;34.17;;;6.80;;
53519;SDS011;39397;53.204;5.778;2023-02-05T10:51:15;28.40;;;4.55;;
53519;SDS011;39397;53.204;5.778;2023-02-05T10:53:47;22.90;;;4.22;;
53519;SDS011;39397;53.204;5.778;2023-02-05T10:56:16;27.90;;;5.57;;
53519;SDS011;39397;53.204;5.778;2023-02-05T10:58:53;35.17;;;6.72;;
53519;SDS011;39397;53.204;5.778;2023-02-05T11:01:29;27.73;;;4.82;;
53519;SDS011;39397;53.204;5.778;2023-02-05T11:07:12;21.45;;;4.38;;
53519;SDS011;39397;53.204;5.778;2023-02-05T11:10:33;26.73;;;4.88;;
53519;SDS011;39397;53.204;5.778;2023-02-05T11:15:54;22.90;;;5.75;;
53519;SDS011;39397;53.204;5.778;2023-02-05T11:18:35;25.48;;;4.47;;
53519;SDS011;39397;53.204;5.778;2023-02-05T11:21:22;41.97;;;7.63;;
53519;SDS011;39397;53.204;5.778;2023-02-05T11:24:21;26.80;;;4.30;;
53519;SDS011;39397;53.204;5.778;2023-02-05T11:27:10;31.75;;;5.65;;
53519;SDS011;39397;53.204;5.778;2023-02-05T11:29:40;20.67;;;4.65;;
53519;SDS011;39397;53.204;5.778;2023-02-05T11:35:07;31.90;;;5.45;;
53519;SDS011;39397;53.204;5.778;2023-02-05T11:38:14;20.73;;;3.53;;
53519;SDS011;39397;53.204;5.778;2023-02-05T11:40:54;24.02;;;5.03;;
53519;SDS011;39397;53.204;5.778;2023-02-05T11:43:39;24.80;;;4.78;;
53519;SDS011;39397;53.204;5.778;2023-02-05T11:46:32;28.50;;;4.53;;
53519;SDS011;39397;53.204;5.778;2023-02-05T11:49:14;35.38;;;5.38;;
53519;SDS011;39397;53.204;5.778;2023-02-05T11:51:47;22.38;;;5.05;;
53519;SDS011;39397;53.204;5.778;2023-02-05T11:54:32;33.72;;;4.95;;
53519;SDS011;39397;53.204;5.778;2023-02-05T11:57:21;29.08;;;4.40;;
53519;SDS011;39397;53.204;5.778;2023-02-05T12:02:45;27.38;;;4.75;;
53519;SDS011;39397;53.204;5.778;2023-02-05T12:05:23;20.48;;;5.03;;
53519;SDS011;39397;53.204;5.778;2023-02-05T12:07:55;21.23;;;5.03;;
53519;SDS011;39397;53.204;5.778;2023-02-05T12:21:47;27.15;;;5.25;;
53519;SDS011;39397;53.204;5.778;2023-02-05T12:24:42;36.83;;;6.38;;
53519;SDS011;39397;53.204;5.778;2023-02-05T12:33:14;33.42;;;5.45;;
53519;SDS011;39397;53.204;5.778;2023-02-05T12:45:16;26.77;;;4.57;;
53519;SDS011;39397;53.204;5.778;2023-02-05T12:48:20;36.65;;;6.07;;
53519;SDS011;39397;53.204;5.778;2023-02-05T12:51:20;30.73;;;5.63;;
53519;SDS011;39397;53.204;5.778;2023-02-05T12:57:23;31.52;;;5.88;;
53519;SDS011;39397;53.204;5.778;2023-02-05T13:00:43;33.33;;;6.18;;
53519;SDS011;39397;53.204;5.778;2023-02-05T13:03:35;31.00;;;5.50;;
53519;SDS011;39397;53.204;5.778;2023-02-05T13:09:50;29.75;;;4.97;;
53519;SDS011;39397;53.204;5.778;2023-02-05T13:12:10;28.17;;;5.82;;
53519;SDS011;39397;53.204;5.778;2023-02-05T13:14:52;29.50;;;6.70;;
53519;SDS011;39397;53.204;5.778;2023-02-05T13:18:00;26.52;;;4.95;;
53519;SDS011;39397;53.204;5.778;2023-02-05T13:20:37;29.85;;;5.00;;
53519;SDS011;39397;53.204;5.778;2023-02-05T13:23:30;32.70;;;5.47;;
53519;SDS011;39397;53.204;5.778;2023-02-05T13:26:27;35.47;;;5.60;;
53519;SDS011;39397;53.204;5.778;2023-02-05T13:29:17;34.15;;;6.03;;
53519;SDS011;39397;53.204;5.778;2023-02-05T13:31:48;33.75;;;5.70;;
53519;SDS011;39397;53.204;5.778;2023-02-05T13:34:17;31.02;;;5.07;;
53519;SDS011;39397;53.204;5.778;2023-02-05T13:59:13;34.55;;;5.60;;
53519;SDS011;39397;53.204;5.778;2023-02-05T14:01:57;30.55;;;6.65;;
53519;SDS011;39397;53.204;5.778;2023-02-05T14:07:03;38.53;;;7.75;;
53519;SDS011;39397;53.204;5.778;2023-02-05T14:09:48;35.72;;;6.40;;
53519;SDS011;39397;53.204;5.778;2023-02-05T14:12:28;38.30;;;6.32;;
53519;SDS011;39397;53.204;5.778;2023-02-05T14:15:41;39.20;;;7.18;;
53519;SDS011;39397;53.204;5.778;2023-02-05T14:22:57;45.40;;;7.00;;
53519;SDS011;39397;53.204;5.778;2023-02-05T14:30:46;35.60;;;6.10;;
53519;SDS011;39397;53.204;5.778;2023-02-05T14:35:56;31.10;;;5.82;;
53519;SDS011;39397;53.204;5.778;2023-02-05T14:38:38;37.38;;;7.00;;
53519;SDS011;39397;53.204;5.778;2023-02-05T14:41:08;36.67;;;6.50;;
53519;SDS011;39397;53.204;5.778;2023-02-05T14:43:38;32.97;;;5.93;;
53519;SDS011;39397;53.204;5.778;2023-02-05T14:46:28;40.90;;;7.70;;
53519;SDS011;39397;53.204;5.778;2023-02-05T14:49:04;33.13;;;7.03;;
53519;SDS011;39397;53.204;5.778;2023-02-05T14:51:38;34.30;;;6.45;;
53519;SDS011;39397;53.204;5.778;2023-02-05T14:54:14;31.73;;;6.60;;
53519;SDS011;39397;53.204;5.778;2023-02-05T14:56:44;39.10;;;7.72;;
53519;SDS011;39397;53.204;5.778;2023-02-05T15:01:48;37.10;;;5.45;;
53519;SDS011;39397;53.204;5.778;2023-02-05T15:07:08;40.65;;;7.95;;
53519;SDS011;39397;53.204;5.778;2023-02-05T15:17:52;44.33;;;8.88;;
53519;SDS011;39397;53.204;5.778;2023-02-05T15:20:22;29.58;;;6.50;;
53519;SDS011;39397;53.204;5.778;2023-02-05T15:22:56;39.13;;;8.40;;
53519;SDS011;39397;53.204;5.778;2023-02-05T15:28:02;42.65;;;7.35;;
53519;SDS011;39397;53.204;5.778;2023-02-05T15:30:38;27.50;;;4.75;;
53519;SDS011;39397;53.204;5.778;2023-02-05T15:33:24;31.50;;;4.32;;
53519;SDS011;39397;53.204;5.778;2023-02-05T15:35:58;33.67;;;5.57;;
53519;SDS011;39397;53.204;5.778;2023-02-05T15:40:59;40.80;;;7.03;;
53519;SDS011;39397;53.204;5.778;2023-02-05T15:43:30;31.15;;;6.13;;
53519;SDS011;39397;53.204;5.778;2023-02-05T15:46:03;36.45;;;6.72;;
53519;SDS011;39397;53.204;5.778;2023-02-05T15:48:32;41.10;;;6.57;;
53519;SDS011;39397;53.204;5.778;2023-02-05T15:53:44;35.25;;;5.65;;
53519;SDS011;39397;53.204;5.778;2023-02-05T15:56:13;36.20;;;6.28;;
53519;SDS011;39397;53.204;5.778;2023-02-05T15:59:14;37.90;;;6.13;;
53519;SDS011;39397;53.204;5.778;2023-02-05T16:01:43;46.83;;;6.57;;
53519;SDS011;39397;53.204;5.778;2023-02-05T16:07:16;41.28;;;7.65;;
53519;SDS011;39397;53.204;5.778;2023-02-05T16:09:46;45.15;;;7.30;;
53519;SDS011;39397;53.204;5.778;2023-02-05T16:12:14;39.60;;;7.07;;
53519;SDS011;39397;53.204;5.778;2023-02-05T16:14:40;39.05;;;7.00;;
53519;SDS011;39397;53.204;5.778;2023-02-05T16:17:20;43.13;;;7.57;;
53519;SDS011;39397;53.204;5.778;2023-02-05T16:19:55;41.50;;;6.90;;
53519;SDS011;39397;53.204;5.778;2023-02-05T16:22:43;37.28;;;6.35;;
53519;SDS011;39397;53.204;5.778;2023-02-05T16:25:33;34.80;;;6.50;;
53519;SDS011;39397;53.204;5.778;2023-02-05T16:31:01;37.47;;;6.20;;
53519;SDS011;39397;53.204;5.778;2023-02-05T16:33:32;32.50;;;5.45;;
53519;SDS011;39397;53.204;5.778;2023-02-05T16:36:00;41.38;;;7.30;;
53519;SDS011;39397;53.204;5.778;2023-02-05T16:38:28;40.65;;;6.38;;
53519;SDS011;39397;53.204;5.778;2023-02-05T16:40:56;39.60;;;6.85;;
53519;SDS011;39397;53.204;5.778;2023-02-05T16:43:44;46.75;;;7.07;;
53519;SDS011;39397;53.204;5.778;2023-02-05T16:48:36;40.70;;;7.03;;
53519;SDS011;39397;53.204;5.778;2023-02-05T16:54:40;39.78;;;5.93;;
53519;SDS011;39397;53.204;5.778;2023-02-05T16:59:34;40.38;;;8.07;;
53519;SDS011;39397;53.204;5.778;2023-02-05T17:02:03;36.90;;;6.70;;
53519;SDS011;39397;53.204;5.778;2023-02-05T17:04:34;31.88;;;5.82;;
53519;SDS011;39397;53.204;5.778;2023-02-05T17:07:03;38.85;;;6.28;;
53519;SDS011;39397;53.204;5.778;2023-02-05T17:09:40;38.20;;;7.22;;
53519;SDS011;39397;53.204;5.778;2023-02-05T17:14:54;34.90;;;4.90;;
53519;SDS011;39397;53.204;5.778;2023-02-05T17:17:22;31.40;;;5.05;;
53519;SDS011;39397;53.204;5.778;2023-02-05T17:22:33;39.53;;;6.80;;
53519;SDS011;39397;53.204;5.778;2023-02-05T17:25:00;40.15;;;7.22;;
53519;SDS011;39397;53.204;5.778;2023-02-05T17:29:53;32.33;;;6.30;;
53519;SDS011;39397;53.204;5.778;2023-02-05T17:32:19;32.22;;;6.47;;
53519;SDS011;39397;53.204;5.778;2023-02-05T17:34:51;34.28;;;5.65;;
53519;SDS011;39397;53.204;5.778;2023-02-05T17:37:17;34.13;;;6.00;;
53519;SDS011;39397;53.204;5.778;2023-02-05T17:39:43;39.50;;;6.57;;
53519;SDS011;39397;53.204;5.778;2023-02-05T17:42:19;39.30;;;6.35;;
53519;SDS011;39397;53.204;5.778;2023-02-05T17:44:46;40.78;;;5.88;;
53519;SDS011;39397;53.204;5.778;2023-02-05T17:47:13;34.55;;;5.40;;
53519;SDS011;39397;53.204;5.778;2023-02-05T17:49:38;36.03;;;6.32;;
53519;SDS011;39397;53.204;5.778;2023-02-05T17:52:07;39.80;;;5.70;;
53519;SDS011;39397;53.204;5.778;2023-02-05T17:54:34;38.75;;;6.93;;
53519;SDS011;39397;53.204;5.778;2023-02-05T17:57:10;39.53;;;6.28;;
53519;SDS011;39397;53.204;5.778;2023-02-05T17:59:41;39.67;;;5.65;;